Time;durP1;ratioP1;P1;durP2;ratioP2;P2;SDS_P1;SDS_P2;PMS_P1;PMS_P2;Temp;Humidity;BMP_temperature;BMP_pressure;BME280_temperature;BME280_humidity;BME280_pressure;Samples;Min_cycle;Max_cycle;Signal;HPM_P1;HPM_P2
2023/10/08 00:02:21;;;;;;;7.82;1.60;;;;;;;;;;5014966;28;20438;-69
2023/10/08 00:04:47;;;;;;;4.82;2.00;;;;;;;;;;5015003;28;20030;-69
2023/10/08 00:07:12;;;;;;;6.40;1.95;;;;;;;;;;5015185;28;20076;-69
2023/10/08 00:09:37;;;;;;;3.88;2.00;;;;;;;;;;5014690;28;20061;-69
2023/10/08 00:12:03;;;;;;;2.08;1.85;;;;;;;;;;5014978;28;20052;-69
2023/10/08 00:14:29;;;;;;;2.83;1.92;;;;;;;;;;5016868;28;20553;-69
2023/10/08 00:16:54;;;;;;;2.53;1.60;;;;;;;;;;5032172;28;20025;-69
2023/10/08 00:19:21;;;;;;;5.85;2.22;;;;;;;;;;5027423;28;20021;-69
2023/10/08 00:21:48;;;;;;;5.25;2.65;;;;;;;;;;5034132;28;20031;-69
2023/10/08 00:24:15;;;;;;;7.85;1.80;;;;;;;;;;5033488;28;20025;-69
2023/10/08 00:26:43;;;;;;;5.15;1.90;;;;;;;;;;5033764;28;20510;-69
2023/10/08 00:29:15;;;;;;;4.88;1.73;;;;;;;;;;5034003;28;20033;-69
2023/10/08 00:31:49;;;;;;;2.20;1.70;;;;;;;;;;5016322;28;20029;-69
2023/10/08 00:34:15;;;;;;;6.15;2.63;;;;;;;;;;5017004;28;20021;-69
2023/10/08 00:36:41;;;;;;;5.03;1.77;;;;;;;;;;5016422;28;20031;-69
2023/10/08 00:39:13;;;;;;;6.47;2.40;;;;;;;;;;5034201;28;20025;-69
2023/10/08 00:41:38;;;;;;;7.70;2.53;;;;;;;;;;5016937;28;20021;-69
2023/10/08 00:44:07;;;;;;;5.43;3.78;;;;;;;;;;5033681;28;20028;-69
2023/10/08 00:46:35;;;;;;;3.13;1.95;;;;;;;;;;5015390;28;20025;-69
2023/10/08 00:49:19;;;;;;;5.05;1.90;;;;;;;;;;4999943;28;20033;-69
2023/10/08 00:51:59;;;;;;;;;;;;;;;;;;5033950;28;20045;-69
2023/10/08 00:54:25;;;;;;;3.30;1.70;;;;;;;;;;5036974;28;20014;-69
2023/10/08 00:56:57;;;;;;;1.92;1.52;;;;;;;;;;4996473;28;20026;-69
2023/10/08 00:59:37;;;;;;;4.05;1.77;;;;;;;;;;5004141;28;20105;-69
2023/10/08 01:02:14;;;;;;;3.72;1.90;;;;;;;;;;5016434;28;20027;-69
2023/10/08 01:04:39;;;;;;;2.88;1.63;;;;;;;;;;5029535;28;20035;-69
2023/10/08 01:07:15;;;;;;;4.47;1.70;;;;;;;;;;5015412;28;20108;-69
2023/10/08 01:09:42;;;;;;;4.88;1.60;;;;;;;;;;5029024;28;20029;-69
2023/10/08 01:12:14;;;;;;;3.70;1.77;;;;;;;;;;5017605;28;20030;-69
2023/10/08 01:14:53;;;;;;;4.70;2.08;;;;;;;;;;4995476;28;20108;-69
2023/10/08 01:17:31;;;;;;;3.13;1.80;;;;;;;;;;5005972;28;20032;-69
2023/10/08 01:19:59;;;;;;;11.40;2.63;;;;;;;;;;5013534;28;20034;-69
2023/10/08 01:22:28;;;;;;;4.13;2.10;;;;;;;;;;5013263;28;20021;-69
2023/10/08 01:24:53;;;;;;;4.45;2.28;;;;;;;;;;5018945;28;20034;-69
2023/10/08 01:27:23;;;;;;;3.20;1.83;;;;;;;;;;4995632;28;20072;-69
2023/10/08 01:29:50;;;;;;;3.80;1.92;;;;;;;;;;5013574;28;20460;-69
2023/10/08 01:32:16;;;;;;;3.75;1.98;;;;;;;;;;4995585;28;20069;-69
2023/10/08 01:34:45;;;;;;;3.47;2.42;;;;;;;;;;5007221;28;20117;-69
2023/10/08 01:37:12;;;;;;;4.25;1.95;;;;;;;;;;5005016;28;20060;-69
2023/10/08 01:39:42;;;;;;;4.40;1.88;;;;;;;;;;5011958;28;20017;-69
2023/10/08 01:42:15;;;;;;;4.78;1.40;;;;;;;;;;5033995;28;20399;-69
2023/10/08 01:44:40;;;;;;;5.63;1.70;;;;;;;;;;5013898;28;20088;-69
2023/10/08 01:47:06;;;;;;;5.28;1.92;;;;;;;;;;5019653;28;20029;-69
2023/10/08 01:49:32;;;;;;;2.72;1.75;;;;;;;;;;5036940;28;20044;-69
2023/10/08 01:51:57;;;;;;;2.53;1.95;;;;;;;;;;5018831;28;20025;-69
2023/10/08 01:54:25;;;;;;;5.93;2.53;;;;;;;;;;5036461;28;20488;-69
2023/10/08 01:56:51;;;;;;;2.20;1.40;;;;;;;;;;5036697;28;20041;-69
2023/10/08 01:59:16;;;;;;;3.65;1.42;;;;;;;;;;5019211;28;20057;-69
2023/10/08 02:01:43;;;;;;;2.28;1.67;;;;;;;;;;5036539;28;20021;-69
2023/10/08 02:04:12;;;;;;;3.45;2.00;;;;;;;;;;5031813;28;20033;-69
2023/10/08 02:06:39;;;;;;;4.57;2.28;;;;;;;;;;5018745;28;20017;-69
2023/10/08 02:09:07;;;;;;;4.15;2.00;;;;;;;;;;5019033;28;20057;-69
2023/10/08 02:11:50;;;;;;;4.60;1.90;;;;;;;;;;5019645;28;20495;-69
2023/10/08 02:14:16;;;;;;;2.95;2.00;;;;;;;;;;5036311;28;20056;-69
2023/10/08 02:16:43;;;;;;;4.38;1.42;;;;;;;;;;5018894;28;20368;-69
2023/10/08 02:19:10;;;;;;;5.32;2.53;;;;;;;;;;5013422;28;20030;-69
2023/10/08 02:21:37;;;;;;;3.33;1.77;;;;;;;;;;5016179;28;20365;-69
2023/10/08 02:24:03;;;;;;;2.75;1.90;;;;;;;;;;4998992;28;20022;-69
2023/10/08 02:26:28;;;;;;;3.22;1.83;;;;;;;;;;5033217;28;20036;-69
2023/10/08 02:28:54;;;;;;;6.47;2.17;;;;;;;;;;5017581;28;20029;-69
2023/10/08 02:31:22;;;;;;;6.95;2.30;;;;;;;;;;5036150;28;20502;-69
2023/10/08 02:33:49;;;;;;;4.82;2.17;;;;;;;;;;5036303;28;20108;-69
2023/10/08 02:36:14;;;;;;;3.15;1.85;;;;;;;;;;5018337;28;20101;-69
2023/10/08 02:38:39;;;;;;;3.75;2.20;;;;;;;;;;5035726;28;20057;-69
2023/10/08 02:41:07;;;;;;;3.17;1.92;;;;;;;;;;5035274;28;20028;-69
2023/10/08 02:43:36;;;;;;;3.13;1.70;;;;;;;;;;5018496;28;20102;-69
2023/10/08 02:46:06;;;;;;;3.15;2.10;;;;;;;;;;5035615;28;20025;-68
2023/10/08 02:48:32;;;;;;;5.90;2.47;;;;;;;;;;5035847;28;20057;-69
2023/10/08 02:51:06;;;;;;;8.55;2.42;;;;;;;;;;5035008;28;20049;-69
2023/10/08 02:53:32;;;;;;;5.55;1.75;;;;;;;;;;5035154;28;20482;-69
2023/10/08 02:55:57;;;;;;;4.05;1.88;;;;;;;;;;5035809;28;20071;-69
2023/10/08 02:58:25;;;;;;;4.38;2.90;;;;;;;;;;5035749;28;20155;-69
2023/10/08 03:00:53;;;;;;;6.10;1.75;;;;;;;;;;5018453;28;20029;-69
2023/10/08 03:03:18;;;;;;;5.20;1.92;;;;;;;;;;5035574;28;20029;-69
2023/10/08 03:05:49;;;;;;;3.15;1.60;;;;;;;;;;5035049;28;20373;-69
2023/10/08 03:08:21;;;;;;;3.35;2.28;;;;;;;;;;5001433;28;20029;-69
2023/10/08 03:10:55;;;;;;;9.82;1.92;;;;;;;;;;5011415;28;20040;-69
2023/10/08 03:13:21;;;;;;;4.50;2.13;;;;;;;;;;5035328;28;20025;-69
2023/10/08 03:15:57;;;;;;;4.15;2.22;;;;;;;;;;5017726;28;20025;-69
2023/10/08 03:18:23;;;;;;;3.53;1.85;;;;;;;;;;5018089;28;20026;-68
2023/10/08 03:20:49;;;;;;;6.57;2.45;;;;;;;;;;5031202;28;20029;-69
2023/10/08 03:23:32;;;;;;;3.88;2.55;;;;;;;;;;4997633;28;20036;-69
2023/10/08 03:26:02;;;;;;;6.30;2.20;;;;;;;;;;4999872;28;20026;-69
2023/10/08 03:28:29;;;;;;;7.05;2.22;;;;;;;;;;5026401;28;20030;-69
2023/10/08 03:31:04;;;;;;;5.78;2.40;;;;;;;;;;5035034;28;20043;-69
2023/10/08 03:33:34;;;;;;;12.80;2.03;;;;;;;;;;5034845;28;20380;-69
2023/10/08 03:36:04;;;;;;;5.50;2.20;;;;;;;;;;5013274;28;20416;-69
2023/10/08 03:38:44;;;;;;;3.75;2.25;;;;;;;;;;5017446;28;20075;-68
2023/10/08 03:41:16;;;;;;;4.68;2.15;;;;;;;;;;5033840;28;20026;-69
2023/10/08 03:43:52;;;;;;;3.17;2.03;;;;;;;;;;5034802;28;20045;-69
2023/10/08 03:46:21;;;;;;;3.47;2.42;;;;;;;;;;5017897;28;20021;-69
2023/10/08 03:48:46;;;;;;;7.40;1.70;;;;;;;;;;5034742;28;20021;-69
2023/10/08 03:51:12;;;;;;;2.70;1.83;;;;;;;;;;5016754;28;20018;-69
2023/10/08 03:56:25;;;;;;;2.70;2.35;;;;;;;;;;5019355;28;20034;-69
2023/10/08 03:58:53;;;;;;;2.75;2.25;;;;;;;;;;5016744;28;20053;-69
2023/10/08 04:01:19;;;;;;;2.97;1.27;;;;;;;;;;5034372;28;20123;-69
2023/10/08 04:04:05;;;;;;;3.78;1.88;;;;;;;;;;5033371;28;20018;-69
2023/10/08 04:06:39;;;;;;;4.30;2.10;;;;;;;;;;5033283;28;20068;-69
2023/10/08 04:09:16;;;;;;;4.70;1.95;;;;;;;;;;5032393;28;20029;-69
2023/10/08 04:12:08;;;;;;;2.47;1.80;;;;;;;;;;4998908;28;20404;-69
2023/10/08 04:14:30;;;;;;;5.40;1.92;;;;;;;;;;5013867;28;20161;-69
2023/10/08 04:16:56;;;;;;;2.85;1.65;;;;;;;;;;5017551;28;20032;-69
2023/10/08 04:19:26;;;;;;;5.07;2.20;;;;;;;;;;4996578;28;20026;-69
2023/10/08 04:21:55;;;;;;;3.22;1.85;;;;;;;;;;5004008;28;20032;-69
2023/10/08 04:24:29;;;;;;;3.97;1.42;;;;;;;;;;5012989;28;20450;-69
2023/10/08 04:26:58;;;;;;;5.50;1.83;;;;;;;;;;5021106;28;20010;-69
2023/10/08 04:29:25;;;;;;;4.72;1.80;;;;;;;;;;5000118;28;20022;-69
2023/10/08 04:32:01;;;;;;;4.00;1.73;;;;;;;;;;4997336;28;20391;-69
2023/10/08 04:34:28;;;;;;;5.18;1.60;;;;;;;;;;4998304;28;20026;-69
2023/10/08 04:37:00;;;;;;;5.10;3.38;;;;;;;;;;4996707;28;20017;-69
2023/10/08 04:39:32;;;;;;;5.18;3.53;;;;;;;;;;5028862;28;20545;-69
2023/10/08 04:42:12;;;;;;;7.30;3.58;;;;;;;;;;5033542;28;20096;-69
2023/10/08 04:44:40;;;;;;;9.88;4.57;;;;;;;;;;5017673;28;20380;-69
2023/10/08 04:47:31;;;;;;;8.48;4.28;;;;;;;;;;5015898;28;20017;-69
2023/10/08 04:49:53;;;;;;;5.45;2.95;;;;;;;;;;5033546;28;20044;-69
2023/10/08 04:52:19;;;;;;;4.70;3.10;;;;;;;;;;5033967;28;20029;-69
2023/10/08 04:54:51;;;;;;;5.82;2.92;;;;;;;;;;5033130;28;20056;-69
2023/10/08 04:57:16;;;;;;;;;;;;;;;;;;5034215;28;20063;-69
2023/10/08 04:59:43;;;;;;;2.60;2.08;;;;;;;;;;5049269;28;19909;-69
2023/10/08 05:02:34;;;;;;;2.80;2.08;;;;;;;;;;5016007;28;20021;-69
2023/10/08 05:13:01;;;;;;;4.55;2.30;;;;;;;;;;5044997;23;20044;-69
2023/10/08 05:15:41;;;;;;;7.82;2.40;;;;;;;;;;5056828;28;20025;-69
2023/10/08 05:18:14;;;;;;;7.53;2.47;;;;;;;;;;5073708;28;20585;-69
2023/10/08 05:23:42;;;;;;;4.93;2.47;;;;;;;;;;5072718;28;20502;-69
2023/10/08 05:28:36;;;;;;;5.18;2.97;;;;;;;;;;5074354;28;20056;-69
2023/10/08 05:36:49;;;;;;;5.75;2.92;;;;;;;;;;5073675;28;20032;-69
2023/10/08 05:42:14;;;;;;;9.07;3.72;;;;;;;;;;5073343;28;20034;-68
2023/10/08 05:44:45;;;;;;;6.80;3.15;;;;;;;;;;5072961;28;20037;-69
2023/10/08 05:55:27;;;;;;;3.50;2.45;;;;;;;;;;5073369;28;20025;-69
2023/10/08 05:58:24;;;;;;;7.32;3.08;;;;;;;;;;5072080;28;20021;-69
2023/10/08 06:06:22;;;;;;;3.10;2.67;;;;;;;;;;5071752;28;20034;-69
2023/10/08 06:11:44;;;;;;;5.10;2.67;;;;;;;;;;5073295;28;20031;-69
2023/10/08 06:14:13;;;;;;;3.78;2.83;;;;;;;;;;5071786;28;20121;-69
2023/10/08 06:17:01;;;;;;;3.40;2.35;;;;;;;;;;5071802;28;20013;-69
2023/10/08 06:19:27;;;;;;;7.57;2.38;;;;;;;;;;5071316;28;20528;-69
2023/10/08 06:21:53;;;;;;;4.47;3.03;;;;;;;;;;5073758;28;20028;-69
2023/10/08 06:24:20;;;;;;;7.88;3.17;;;;;;;;;;5072833;28;20078;-69
2023/10/08 06:26:48;;;;;;;4.60;3.72;;;;;;;;;;5072965;28;20029;-69
2023/10/08 06:29:26;;;;;;;4.97;2.83;;;;;;;;;;5075129;28;20036;-69
2023/10/08 06:31:55;;;;;;;8.75;3.17;;;;;;;;;;5076627;28;20474;-69
2023/10/08 06:34:21;;;;;;;5.55;2.88;;;;;;;;;;5075932;28;20032;-69
2023/10/08 06:36:47;;;;;;;9.07;3.03;;;;;;;;;;5075197;28;20104;-69
2023/10/08 06:39:18;;;;;;;7.63;3.47;;;;;;;;;;5074977;28;20021;-69
2023/10/08 06:41:46;;;;;;;4.93;2.83;;;;;;;;;;5075460;28;20027;-69
2023/10/08 06:44:14;;;;;;;4.68;2.20;;;;;;;;;;5075202;28;20501;-69
2023/10/08 06:46:39;;;;;;;3.75;2.72;;;;;;;;;;5074728;28;20027;-69
2023/10/08 06:49:11;;;;;;;5.88;2.60;;;;;;;;;;5075081;28;20025;-69
2023/10/08 06:51:36;;;;;;;;;;;;;;;;;;5075366;28;20031;-69
2023/10/08 06:54:03;;;;;;;8.20;2.50;;;;;;;;;;5075246;28;19908;-69
2023/10/08 06:56:31;;;;;;;4.53;2.22;;;;;;;;;;5075822;28;20089;-69
2023/10/08 06:58:58;;;;;;;7.80;2.70;;;;;;;;;;5058215;28;20031;-69
2023/10/08 07:01:38;;;;;;;6.03;2.90;;;;;;;;;;5075576;28;20032;-69
2023/10/08 07:04:06;;;;;;;12.93;3.28;;;;;;;;;;5074007;28;20027;-69
2023/10/08 07:06:31;;;;;;;17.38;10.63;;;;;;;;;;5075550;28;20062;-68
2023/10/08 07:08:59;;;;;;;5.70;2.88;;;;;;;;;;5091138;28;20037;-68
2023/10/08 07:11:26;;;;;;;5.65;3.08;;;;;;;;;;5074731;28;20028;-69
2023/10/08 07:13:52;;;;;;;6.97;2.78;;;;;;;;;;5073926;28;20024;-68
2023/10/08 07:16:17;;;;;;;6.07;2.80;;;;;;;;;;5074293;28;20501;-68
2023/10/08 07:18:52;;;;;;;4.90;3.25;;;;;;;;;;5073705;28;20386;-69
2023/10/08 07:21:17;;;;;;;8.15;3.38;;;;;;;;;;5074580;28;20025;-69
2023/10/08 07:26:40;;;;;;;19.67;8.35;;;;;;;;;;5051772;28;20036;-69
2023/10/08 07:29:09;;;;;;;9.63;6.05;;;;;;;;;;5075531;28;20032;-69
2023/10/08 07:31:36;;;;;;;5.75;3.15;;;;;;;;;;5074399;28;20040;-69
2023/10/08 07:36:51;;;;;;;4.18;2.60;;;;;;;;;;5074426;28;20116;-69
2023/10/08 07:40:09;;;;;;;6.88;3.08;;;;;;;;;;5074853;28;20494;-69
2023/10/08 07:42:06;;;;;;;7.93;2.80;;;;;;;;;;5059309;28;20044;-69
2023/10/08 07:44:31;;;;;;;9.02;2.97;;;;;;;;;;5075116;28;20021;-69
2023/10/08 07:46:57;;;;;;;7.97;4.47;;;;;;;;;;5074956;28;20475;-69
2023/10/08 07:49:29;;;;;;;6.93;2.85;;;;;;;;;;5074846;28;20379;-69
2023/10/08 07:51:56;;;;;;;5.90;2.55;;;;;;;;;;5075088;28;20070;-69
2023/10/08 07:54:27;;;;;;;4.60;2.38;;;;;;;;;;5074181;28;20036;-69
2023/10/08 07:56:59;;;;;;;5.15;2.50;;;;;;;;;;5074906;28;20069;-69
2023/10/08 07:59:24;;;;;;;4.70;3.30;;;;;;;;;;5074523;28;20547;-69
2023/10/08 08:01:52;;;;;;;6.35;4.40;;;;;;;;;;5074535;28;20115;-69
2023/10/08 08:04:23;;;;;;;4.07;2.40;;;;;;;;;;5074439;28;20032;-69
2023/10/08 08:06:53;;;;;;;3.92;2.22;;;;;;;;;;5072836;28;20058;-69
2023/10/08 08:09:23;;;;;;;3.50;2.08;;;;;;;;;;5074550;28;20509;-69
2023/10/08 08:11:48;;;;;;;4.47;1.90;;;;;;;;;;5073288;28;20025;-69
2023/10/08 08:14:24;;;;;;;4.00;2.05;;;;;;;;;;5073214;28;20028;-69
2023/10/08 08:16:49;;;;;;;2.83;1.88;;;;;;;;;;5073807;28;20496;-69
2023/10/08 08:19:16;;;;;;;4.30;2.17;;;;;;;;;;5073709;28;20064;-68
2023/10/08 08:21:45;;;;;;;4.13;2.05;;;;;;;;;;5074965;28;20031;-69
2023/10/08 08:24:13;;;;;;;3.92;1.85;;;;;;;;;;5075159;28;20508;-69
2023/10/08 08:27:01;;;;;;;2.63;1.60;;;;;;;;;;5096622;22;20064;-73
2023/10/08 08:29:28;;;;;;;2.65;1.58;;;;;;;;;;5073570;28;20398;-73
2023/10/08 08:31:56;;;;;;;2.63;1.63;;;;;;;;;;5072758;28;20028;-73
2023/10/08 08:34:23;;;;;;;5.88;1.80;;;;;;;;;;5074486;28;20052;-73
2023/10/08 08:36:49;;;;;;;2.75;1.65;;;;;;;;;;5053356;28;20055;-73
2023/10/08 08:39:28;;;;;;;6.95;1.92;;;;;;;;;;5054271;28;20048;-73
2023/10/08 08:41:56;;;;;;;2.15;1.58;;;;;;;;;;5054662;28;20067;-73
2023/10/08 08:44:23;;;;;;;4.50;1.88;;;;;;;;;;5053069;28;20117;-73
2023/10/08 08:46:49;;;;;;;6.72;2.97;;;;;;;;;;5052398;28;20025;-73
2023/10/08 08:49:14;;;;;;;3.67;2.53;;;;;;;;;;5053612;28;20455;-73
2023/10/08 08:51:41;;;;;;;12.50;5.07;;;;;;;;;;5052629;28;20035;-73
2023/10/08 08:54:06;;;;;;;7.40;3.03;;;;;;;;;;5054280;28;20446;-73
2023/10/08 08:56:34;;;;;;;3.90;2.38;;;;;;;;;;5054008;28;20049;-73
2023/10/08 08:59:00;;;;;;;4.18;2.08;;;;;;;;;;5069069;28;20078;-73
2023/10/08 09:01:25;;;;;;;5.70;2.95;;;;;;;;;;5052966;28;20036;-73
2023/10/08 09:03:50;;;;;;;5.78;2.22;;;;;;;;;;5053936;28;20028;-73
2023/10/08 09:06:16;;;;;;;3.72;1.38;;;;;;;;;;5054084;28;20047;-73
2023/10/08 09:08:42;;;;;;;2.42;1.70;;;;;;;;;;5054166;28;20505;-73
2023/10/08 09:11:08;;;;;;;2.00;1.73;;;;;;;;;;5053844;28;20520;-73
2023/10/08 09:13:34;;;;;;;4.93;2.22;;;;;;;;;;5035843;28;20037;-73
2023/10/08 09:16:06;;;;;;;11.23;3.08;;;;;;;;;;5068896;28;20436;-73
2023/10/08 09:18:33;;;;;;;7.38;2.42;;;;;;;;;;5052935;28;20021;-74
2023/10/08 09:21:10;;;;;;;15.70;5.22;;;;;;;;;;5050306;28;20048;-73
2023/10/08 09:23:39;;;;;;;6.70;2.65;;;;;;;;;;5051969;28;20016;-73
2023/10/08 09:26:04;;;;;;;5.65;1.98;;;;;;;;;;5043487;28;20026;-72
2023/10/08 09:28:32;;;;;;;10.98;4.05;;;;;;;;;;5044841;28;20078;-72
2023/10/08 09:30:59;;;;;;;3.08;2.08;;;;;;;;;;5047722;28;20056;-73
2023/10/08 09:33:24;;;;;;;5.43;2.53;;;;;;;;;;5053470;28;20049;-73
2023/10/08 09:35:52;;;;;;;3.67;1.88;;;;;;;;;;5053536;28;20110;-73
2023/10/08 09:38:22;;;;;;;4.80;2.22;;;;;;;;;;5052504;28;20021;-73
2023/10/08 09:40:48;;;;;;;11.07;2.92;;;;;;;;;;5052347;28;20032;-73
2023/10/08 09:43:16;;;;;;;4.78;2.22;;;;;;;;;;5048343;28;20050;-73
2023/10/08 09:45:53;;;;;;;5.25;2.20;;;;;;;;;;5032774;28;20032;-73
2023/10/08 09:48:20;;;;;;;8.75;2.97;;;;;;;;;;5032034;28;20021;-72
2023/10/08 09:50:46;;;;;;;10.98;3.92;;;;;;;;;;5032355;28;20022;-72
2023/10/08 09:53:20;;;;;;;10.10;4.35;;;;;;;;;;5048890;28;20514;-72
2023/10/08 09:55:56;;;;;;;1.42;1.00;;;;;;;;;;5050588;28;20386;-73
2023/10/08 09:58:23;;;;;;;5.45;2.42;;;;;;;;;;5053279;28;20107;-73
2023/10/08 10:00:48;;;;;;;17.10;5.90;;;;;;;;;;5052109;28;20100;-73
2023/10/08 10:03:14;;;;;;;3.38;1.63;;;;;;;;;;5054275;28;20495;-72
2023/10/08 10:05:42;;;;;;;8.02;3.28;;;;;;;;;;5055795;28;20033;-72
2023/10/08 10:08:09;;;;;;;2.60;1.70;;;;;;;;;;5057029;28;20542;-72
2023/10/08 10:10:38;;;;;;;4.15;2.00;;;;;;;;;;5055728;28;20054;-72
2023/10/08 10:13:10;;;;;;;2.70;1.63;;;;;;;;;;5055701;28;20032;-72
2023/10/08 10:15:38;;;;;;;7.22;3.08;;;;;;;;;;5055177;28;20494;-72
2023/10/08 10:18:14;;;;;;;3.72;1.70;;;;;;;;;;5055762;28;20538;-73
2023/10/08 10:20:45;;;;;;;4.80;2.17;;;;;;;;;;5052656;28;20025;-73
2023/10/08 10:23:36;;;;;;;2.65;1.70;;;;;;;;;;5019329;28;20063;-73
2023/10/08 10:26:02;;;;;;;2.47;1.70;;;;;;;;;;5026561;28;20470;-73
2023/10/08 10:28:29;;;;;;;3.92;1.98;;;;;;;;;;5035646;28;20105;-73
2023/10/08 10:30:55;;;;;;;3.38;1.63;;;;;;;;;;5035619;28;20476;-73
2023/10/08 10:33:21;;;;;;;5.22;2.08;;;;;;;;;;5052146;28;20025;-73
2023/10/08 10:35:54;;;;;;;9.25;3.33;;;;;;;;;;5035598;28;20026;-73
2023/10/08 10:38:20;;;;;;;3.47;2.08;;;;;;;;;;5034897;28;20479;-73
2023/10/08 10:40:56;;;;;;;3.05;1.67;;;;;;;;;;5035504;28;20029;-73
2023/10/08 10:43:30;;;;;;;1.73;1.30;;;;;;;;;;5063644;28;20024;-73
2023/10/08 10:45:55;;;;;;;2.85;1.40;;;;;;;;;;5056284;28;20020;-73
2023/10/08 10:48:25;;;;;;;2.80;1.50;;;;;;;;;;5055007;28;20108;-73
2023/10/08 10:54:23;;;;;;;2.10;1.42;;;;;;;;;;5054801;28;20024;-73
2023/10/08 10:56:29;;;;;;;1.83;1.27;;;;;;;;;;5037528;28;20418;-73
2023/10/08 10:58:58;;;;;;;3.25;1.10;;;;;;;;;;5056633;28;20033;-73
2023/10/08 11:01:29;;;;;;;3.83;1.23;;;;;;;;;;5054947;28;20441;-73
2023/10/08 11:03:57;;;;;;;2.80;1.48;;;;;;;;;;5037927;28;20021;-73
2023/10/08 11:06:23;;;;;;;4.53;1.70;;;;;;;;;;5056042;28;20067;-73
2023/10/08 11:08:50;;;;;;;2.70;1.77;;;;;;;;;;5055148;28;20045;-73
2023/10/08 11:11:17;;;;;;;2.70;1.40;;;;;;;;;;5054902;28;20083;-73
2023/10/08 11:13:43;;;;;;;4.72;2.03;;;;;;;;;;5055546;28;20438;-73
2023/10/08 11:16:09;;;;;;;1.73;1.20;;;;;;;;;;5056132;28;20021;-73
2023/10/08 11:18:35;;;;;;;2.22;1.00;;;;;;;;;;5054485;28;20395;-73
2023/10/08 11:21:23;;;;;;;4.25;1.58;;;;;;;;;;5054925;28;20031;-73
2023/10/08 11:23:53;;;;;;;1.50;1.38;;;;;;;;;;5054846;28;20029;-73
2023/10/08 11:26:19;;;;;;;1.60;1.33;;;;;;;;;;5055773;28;20425;-73
2023/10/08 11:28:47;;;;;;;2.40;1.40;;;;;;;;;;5054723;28;20083;-73
2023/10/08 11:31:20;;;;;;;2.30;1.40;;;;;;;;;;5054465;28;20063;-73
2023/10/08 11:33:54;;;;;;;3.20;1.30;;;;;;;;;;5054217;28;20086;-73
2023/10/08 11:36:27;;;;;;;1.52;1.40;;;;;;;;;;5054566;28;20021;-73
2023/10/08 11:39:06;;;;;;;2.78;1.15;;;;;;;;;;5055539;28;20029;-73
2023/10/08 11:41:35;;;;;;;2.47;1.50;;;;;;;;;;5054455;28;20139;-73
2023/10/08 11:44:00;;;;;;;4.20;1.80;;;;;;;;;;5054183;28;20487;-72
2023/10/08 11:46:38;;;;;;;2.20;1.60;;;;;;;;;;5055214;28;20104;-73
2023/10/08 11:49:04;;;;;;;1.60;1.10;;;;;;;;;;5054184;28;20037;-73
2023/10/08 11:51:33;;;;;;;4.93;1.60;;;;;;;;;;5055479;28;20037;-73
2023/10/08 11:54:00;;;;;;;2.35;1.40;;;;;;;;;;5037539;28;20021;-74
2023/10/08 11:56:26;;;;;;;2.65;1.50;;;;;;;;;;5054909;28;20051;-72
2023/10/08 11:58:52;;;;;;;2.58;1.50;;;;;;;;;;5055142;28;20036;-72
2023/10/08 12:01:17;;;;;;;1.60;1.23;;;;;;;;;;5055138;28;20028;-72
2023/10/08 12:03:44;;;;;;;2.60;1.60;;;;;;;;;;5055375;28;20471;-72
2023/10/08 12:06:18;;;;;;;1.50;1.40;;;;;;;;;;5053756;28;20029;-73
2023/10/08 12:08:46;;;;;;;2.03;1.40;;;;;;;;;;5053699;28;20051;-74
2023/10/08 12:11:13;;;;;;;3.22;1.52;;;;;;;;;;5053182;28;20017;-73
2023/10/08 12:13:44;;;;;;;3.55;1.10;;;;;;;;;;5053580;28;20521;-73
2023/10/08 12:16:22;;;;;;;2.60;1.80;;;;;;;;;;5053447;28;20017;-73
2023/10/08 12:18:50;;;;;;;3.42;2.47;;;;;;;;;;5053992;28;20020;-73
2023/10/08 12:21:17;;;;;;;4.10;1.77;;;;;;;;;;5052982;28;20063;-73
2023/10/08 12:23:50;;;;;;;16.05;6.43;;;;;;;;;;5053552;28;20025;-73
2023/10/08 12:26:18;;;;;;;3.28;1.75;;;;;;;;;;5053881;28;20033;-73
2023/10/08 12:28:48;;;;;;;4.43;1.90;;;;;;;;;;5053358;28;20025;-73
2023/10/08 12:31:15;;;;;;;2.83;1.77;;;;;;;;;;5054529;28;20027;-74
2023/10/08 12:33:40;;;;;;;3.65;2.45;;;;;;;;;;5036590;28;20124;-73
2023/10/08 12:36:12;;;;;;;9.45;3.10;;;;;;;;;;5053758;28;20457;-73
2023/10/08 12:38:39;;;;;;;4.07;1.25;;;;;;;;;;5055002;28;20402;-73
2023/10/08 12:41:13;;;;;;;3.05;1.50;;;;;;;;;;5053067;28;20017;-73
2023/10/08 12:43:42;;;;;;;3.97;1.90;;;;;;;;;;5054368;28;20029;-73
2023/10/08 12:46:10;;;;;;;7.82;4.07;;;;;;;;;;5054032;28;20039;-72
2023/10/08 12:48:36;;;;;;;4.30;2.33;;;;;;;;;;5053087;28;20028;-73
2023/10/08 12:51:05;;;;;;;3.05;1.70;;;;;;;;;;5053259;28;20032;-73
2023/10/08 12:53:33;;;;;;;2.47;1.63;;;;;;;;;;5036222;28;20419;-73
2023/10/08 12:56:05;;;;;;;3.95;1.88;;;;;;;;;;5053020;28;20040;-73
2023/10/08 12:58:31;;;;;;;2.08;1.48;;;;;;;;;;5053240;28;20029;-73
2023/10/08 13:00:57;;;;;;;1.90;1.50;;;;;;;;;;5052984;28;20498;-73
2023/10/08 13:03:24;;;;;;;8.13;3.03;;;;;;;;;;5052164;28;20017;-73
2023/10/08 13:05:52;;;;;;;3.88;1.30;;;;;;;;;;5054296;28;20426;-73
2023/10/08 13:08:19;;;;;;;7.93;3.08;;;;;;;;;;5036395;28;20027;-73
2023/10/08 13:10:45;;;;;;;3.95;2.05;;;;;;;;;;5053049;28;20025;-72
2023/10/08 13:13:11;;;;;;;3.65;1.85;;;;;;;;;;5053723;28;20075;-73
2023/10/08 13:15:37;;;;;;;2.70;1.60;;;;;;;;;;5053547;28;20056;-73
2023/10/08 13:18:03;;;;;;;6.53;3.70;;;;;;;;;;5053195;28;20056;-73
2023/10/08 13:20:33;;;;;;;2.72;1.52;;;;;;;;;;5054030;28;20059;-73
2023/10/08 13:22:59;;;;;;;4.30;1.52;;;;;;;;;;5053052;28;20412;-73
2023/10/08 13:25:39;;;;;;;4.57;2.17;;;;;;;;;;5052196;28;20071;-73
2023/10/08 13:28:07;;;;;;;8.32;4.00;;;;;;;;;;5053482;28;20103;-73
2023/10/08 13:30:32;;;;;;;2.88;1.73;;;;;;;;;;5052554;28;20028;-73
2023/10/08 13:32:59;;;;;;;9.65;4.68;;;;;;;;;;5053910;28;20086;-73
2023/10/08 13:35:25;;;;;;;5.90;2.65;;;;;;;;;;5053542;28;20033;-73
2023/10/08 13:37:50;;;;;;;6.10;3.42;;;;;;;;;;5054750;28;20025;-73
2023/10/08 13:40:15;;;;;;;4.25;3.05;;;;;;;;;;5056194;28;20032;-73
2023/10/08 13:42:42;;;;;;;2.67;2.30;;;;;;;;;;5057641;28;20103;-73
2023/10/08 13:45:09;;;;;;;5.63;2.65;;;;;;;;;;5057700;28;20032;-73
2023/10/08 13:47:34;;;;;;;2.75;1.65;;;;;;;;;;5057644;28;20498;-73
2023/10/08 13:49:59;;;;;;;5.28;1.92;;;;;;;;;;5056694;28;20041;-73
2023/10/08 13:52:26;;;;;;;4.88;1.88;;;;;;;;;;5057033;28;20021;-73
2023/10/08 13:54:55;;;;;;;3.65;1.98;;;;;;;;;;5056150;28;20033;-73
2023/10/08 13:57:20;;;;;;;2.40;1.70;;;;;;;;;;5057982;28;20590;-73
2023/10/08 13:59:46;;;;;;;3.08;1.60;;;;;;;;;;5056175;28;20048;-73
2023/10/08 14:02:15;;;;;;;4.53;2.67;;;;;;;;;;5057718;28;20025;-73
2023/10/08 14:04:43;;;;;;;5.68;2.47;;;;;;;;;;5057219;28;20031;-73
2023/10/08 14:07:11;;;;;;;4.45;2.33;;;;;;;;;;5039471;28;20440;-73
2023/10/08 14:09:37;;;;;;;3.55;2.08;;;;;;;;;;5056128;28;20028;-73
2023/10/08 14:12:04;;;;;;;2.92;1.73;;;;;;;;;;5055622;28;20028;-73
2023/10/08 14:14:29;;;;;;;3.15;1.88;;;;;;;;;;5056200;28;20039;-73
2023/10/08 14:16:59;;;;;;;4.00;2.25;;;;;;;;;;5057015;28;20017;-73
2023/10/08 14:19:35;;;;;;;11.73;7.05;;;;;;;;;;5039960;28;20051;-73
2023/10/08 14:22:03;;;;;;;6.97;4.15;;;;;;;;;;5055431;28;20037;-73
2023/10/08 14:24:31;;;;;;;3.50;2.70;;;;;;;;;;5039380;28;20032;-73
2023/10/08 14:27:02;;;;;;;3.13;1.77;;;;;;;;;;5055432;28;20040;-73
2023/10/08 14:29:28;;;;;;;4.80;1.38;;;;;;;;;;5057367;28;20398;-73
2023/10/08 14:31:56;;;;;;;1.88;1.73;;;;;;;;;;5042456;22;20056;-68
2023/10/08 14:42:53;;;;;;;3.05;1.95;;;;;;;;;;5025695;28;20139;-68
2023/10/08 14:45:19;;;;;;;2.50;1.95;;;;;;;;;;5008559;28;20552;-69
2023/10/08 14:47:44;;;;;;;3.30;1.73;;;;;;;;;;5012541;28;20033;-68
2023/10/08 14:50:16;;;;;;;3.53;2.15;;;;;;;;;;5012144;28;20056;-69
2023/10/08 14:52:41;;;;;;;;;;;;;;;;;;5006239;28;20029;-68
2023/10/08 14:55:06;;;;;;;4.40;2.42;;;;;;;;;;5006532;28;20352;-68
2023/10/08 14:57:32;;;;;;;2.75;1.80;;;;;;;;;;5003698;28;20069;-69
2023/10/08 14:59:58;;;;;;;3.53;1.95;;;;;;;;;;5008578;28;20076;-69
2023/10/08 15:02:29;;;;;;;3.78;2.03;;;;;;;;;;4986156;28;20029;-69
2023/10/08 15:04:55;;;;;;;3.22;1.73;;;;;;;;;;5012739;28;20018;-69
2023/10/08 15:07:20;;;;;;;2.22;1.90;;;;;;;;;;5010161;28;20026;-69
2023/10/08 15:09:46;;;;;;;2.00;1.80;;;;;;;;;;5005339;28;20037;-69
2023/10/08 15:12:11;;;;;;;5.10;1.52;;;;;;;;;;5009847;28;20064;-69
2023/10/08 15:14:38;;;;;;;2.80;1.60;;;;;;;;;;5001802;28;20022;-69
2023/10/08 15:17:05;;;;;;;2.88;2.03;;;;;;;;;;4992235;28;20022;-69
2023/10/08 15:19:31;;;;;;;3.03;2.03;;;;;;;;;;4980345;28;20492;-69
2023/10/08 15:21:58;;;;;;;4.38;1.48;;;;;;;;;;5008651;28;20034;-69
2023/10/08 15:24:24;;;;;;;2.13;1.60;;;;;;;;;;5006918;28;20034;-69
2023/10/08 15:26:53;;;;;;;4.30;1.95;;;;;;;;;;4992673;28;20026;-73
2023/10/08 15:29:22;;;;;;;1.92;1.73;;;;;;;;;;5007309;28;20080;-72
2023/10/08 15:31:49;;;;;;;4.85;1.98;;;;;;;;;;4993438;28;20026;-72
2023/10/08 15:34:14;;;;;;;4.78;2.50;;;;;;;;;;5007618;28;20108;-72
2023/10/08 15:36:40;;;;;;;5.40;2.15;;;;;;;;;;5007178;28;20496;-71
2023/10/08 15:39:09;;;;;;;2.85;1.95;;;;;;;;;;5010903;28;20028;-71
2023/10/08 15:41:36;;;;;;;3.92;2.33;;;;;;;;;;5009497;28;20030;-71
2023/10/08 15:44:01;;;;;;;5.72;2.47;;;;;;;;;;5005172;28;20038;-72
2023/10/08 15:46:27;;;;;;;3.63;2.63;;;;;;;;;;4994187;28;20037;-71
2023/10/08 15:48:53;;;;;;;4.78;2.40;;;;;;;;;;4986859;28;20073;-72
2023/10/08 15:51:18;;;;;;;8.13;3.50;;;;;;;;;;5028535;23;20046;-72
2023/10/08 15:53:44;;;;;;;2.80;1.48;;;;;;;;;;5066791;28;20108;-71